sensor_id;sensor_type;location;lat;lon;timestamp;P1;durP1;ratioP1;P2;durP2;ratioP2
36353;SDS011;22383;51.114;13.666;2023-09-12T00:02:15;23.50;;;17.67;;
36353;SDS011;22383;51.114;13.666;2023-09-12T00:04:42;24.38;;;17.17;;
36353;SDS011;22383;51.114;13.666;2023-09-12T00:07:09;28.02;;;15.27;;
36353;SDS011;22383;51.114;13.666;2023-09-12T00:09:36;21.60;;;15.68;;
36353;SDS011;22383;51.114;13.666;2023-09-12T00:12:04;22.25;;;15.10;;
36353;SDS011;22383;51.114;13.666;2023-09-12T00:16:58;26.45;;;14.57;;
36353;SDS011;22383;51.114;13.666;2023-09-12T00:19:26;21.00;;;14.07;;
36353;SDS011;22383;51.114;13.666;2023-09-12T00:21:53;18.92;;;13.88;;
36353;SDS011;22383;51.114;13.666;2023-09-12T00:24:20;23.42;;;14.63;;
36353;SDS011;22383;51.114;13.666;2023-09-12T00:26:47;24.17;;;14.85;;
36353;SDS011;22383;51.114;13.666;2023-09-12T00:29:14;24.65;;;15.23;;
36353;SDS011;22383;51.114;13.666;2023-09-12T00:31:41;26.05;;;15.55;;
36353;SDS011;22383;51.114;13.666;2023-09-12T00:34:09;25.02;;;15.35;;
36353;SDS011;22383;51.114;13.666;2023-09-12T00:36:36;20.05;;;14.93;;
36353;SDS011;22383;51.114;13.666;2023-09-12T00:39:04;25.05;;;15.40;;
36353;SDS011;22383;51.114;13.666;2023-09-12T00:41:32;17.75;;;13.13;;
36353;SDS011;22383;51.114;13.666;2023-09-12T00:43:59;18.20;;;12.80;;
36353;SDS011;22383;51.114;13.666;2023-09-12T00:46:26;20.60;;;13.80;;
36353;SDS011;22383;51.114;13.666;2023-09-12T00:51:22;20.65;;;12.75;;
36353;SDS011;22383;51.114;13.666;2023-09-12T00:53:52;18.75;;;12.50;;
36353;SDS011;22383;51.114;13.666;2023-09-12T00:56:20;20.30;;;13.38;;
36353;SDS011;22383;51.114;13.666;2023-09-12T00:58:48;23.02;;;15.57;;
36353;SDS011;22383;51.114;13.666;2023-09-12T01:01:18;28.95;;;17.50;;
36353;SDS011;22383;51.114;13.666;2023-09-12T01:03:48;26.67;;;17.17;;
36353;SDS011;22383;51.114;13.666;2023-09-12T01:06:17;23.98;;;17.50;;
36353;SDS011;22383;51.114;13.666;2023-09-12T01:08:47;23.85;;;17.95;;
36353;SDS011;22383;51.114;13.666;2023-09-12T01:11:14;26.50;;;17.85;;
36353;SDS011;22383;51.114;13.666;2023-09-12T01:13:43;25.23;;;18.73;;
36353;SDS011;22383;51.114;13.666;2023-09-12T01:16:10;25.75;;;18.67;;
36353;SDS011;22383;51.114;13.666;2023-09-12T01:18:38;25.65;;;18.33;;
36353;SDS011;22383;51.114;13.666;2023-09-12T01:21:11;26.42;;;19.20;;
36353;SDS011;22383;51.114;13.666;2023-09-12T01:23:47;26.92;;;19.60;;
36353;SDS011;22383;51.114;13.666;2023-09-12T01:29:14;28.27;;;20.48;;
36353;SDS011;22383;51.114;13.666;2023-09-12T01:31:42;28.95;;;18.85;;
36353;SDS011;22383;51.114;13.666;2023-09-12T01:34:11;24.63;;;17.10;;
36353;SDS011;22383;51.114;13.666;2023-09-12T01:36:39;21.67;;;17.50;;
36353;SDS011;22383;51.114;13.666;2023-09-12T01:39:07;20.83;;;16.73;;
36353;SDS011;22383;51.114;13.666;2023-09-12T01:41:37;22.83;;;17.02;;
36353;SDS011;22383;51.114;13.666;2023-09-12T01:44:08;27.08;;;16.80;;
36353;SDS011;22383;51.114;13.666;2023-09-12T01:46:37;18.73;;;15.00;;
36353;SDS011;22383;51.114;13.666;2023-09-12T01:49:05;23.25;;;14.88;;
36353;SDS011;22383;51.114;13.666;2023-09-12T01:51:34;18.38;;;14.10;;
36353;SDS011;22383;51.114;13.666;2023-09-12T01:54:03;21.58;;;14.57;;
36353;SDS011;22383;51.114;13.666;2023-09-12T01:56:30;22.02;;;14.32;;
36353;SDS011;22383;51.114;13.666;2023-09-12T01:58:58;19.52;;;14.10;;
36353;SDS011;22383;51.114;13.666;2023-09-12T02:01:25;22.38;;;14.85;;
36353;SDS011;22383;51.114;13.666;2023-09-12T02:03:54;20.60;;;13.38;;
36353;SDS011;22383;51.114;13.666;2023-09-12T02:06:21;19.48;;;14.25;;
36353;SDS011;22383;51.114;13.666;2023-09-12T02:08:49;20.23;;;15.73;;
36353;SDS011;22383;51.114;13.666;2023-09-12T02:11:16;25.70;;;15.18;;
36353;SDS011;22383;51.114;13.666;2023-09-12T02:13:43;19.30;;;14.07;;
36353;SDS011;22383;51.114;13.666;2023-09-12T02:16:10;20.90;;;16.00;;
36353;SDS011;22383;51.114;13.666;2023-09-12T02:18:38;23.02;;;15.32;;
36353;SDS011;22383;51.114;13.666;2023-09-12T02:21:05;21.48;;;14.30;;
36353;SDS011;22383;51.114;13.666;2023-09-12T02:23:32;21.77;;;13.68;;
36353;SDS011;22383;51.114;13.666;2023-09-12T02:25:59;24.15;;;15.38;;
36353;SDS011;22383;51.114;13.666;2023-09-12T02:28:27;20.83;;;15.05;;
36353;SDS011;22383;51.114;13.666;2023-09-12T02:30:55;18.08;;;12.25;;
36353;SDS011;22383;51.114;13.666;2023-09-12T02:33:22;18.58;;;12.13;;
36353;SDS011;22383;51.114;13.666;2023-09-12T02:35:49;20.33;;;14.02;;
36353;SDS011;22383;51.114;13.666;2023-09-12T02:38:17;22.92;;;15.27;;
36353;SDS011;22383;51.114;13.666;2023-09-12T02:43:11;23.02;;;17.73;;
36353;SDS011;22383;51.114;13.666;2023-09-12T02:45:39;26.80;;;19.45;;
36353;SDS011;22383;51.114;13.666;2023-09-12T02:48:07;26.13;;;19.42;;
36353;SDS011;22383;51.114;13.666;2023-09-12T02:50:34;26.65;;;20.08;;
36353;SDS011;22383;51.114;13.666;2023-09-12T02:53:01;33.45;;;21.45;;
36353;SDS011;22383;51.114;13.666;2023-09-12T02:55:29;30.45;;;21.27;;
36353;SDS011;22383;51.114;13.666;2023-09-12T02:57:56;25.70;;;20.73;;
36353;SDS011;22383;51.114;13.666;2023-09-12T03:00:23;28.85;;;21.23;;
36353;SDS011;22383;51.114;13.666;2023-09-12T03:02:51;27.70;;;21.08;;
36353;SDS011;22383;51.114;13.666;2023-09-12T03:05:18;26.42;;;20.63;;
36353;SDS011;22383;51.114;13.666;2023-09-12T03:07:45;29.08;;;21.25;;
36353;SDS011;22383;51.114;13.666;2023-09-12T03:10:12;31.35;;;21.60;;
36353;SDS011;22383;51.114;13.666;2023-09-12T03:12:43;28.65;;;21.27;;
36353;SDS011;22383;51.114;13.666;2023-09-12T03:15:10;26.00;;;20.80;;
36353;SDS011;22383;51.114;13.666;2023-09-12T03:17:38;26.75;;;20.95;;
36353;SDS011;22383;51.114;13.666;2023-09-12T03:20:05;26.95;;;20.88;;
36353;SDS011;22383;51.114;13.666;2023-09-12T03:22:36;28.77;;;21.60;;
36353;SDS011;22383;51.114;13.666;2023-09-12T03:25:05;27.60;;;19.90;;
36353;SDS011;22383;51.114;13.666;2023-09-12T03:27:33;28.02;;;19.50;;
36353;SDS011;22383;51.114;13.666;2023-09-12T03:30:00;25.05;;;18.48;;
36353;SDS011;22383;51.114;13.666;2023-09-12T03:32:27;24.73;;;19.25;;
36353;SDS011;22383;51.114;13.666;2023-09-12T03:34:55;23.95;;;18.17;;
36353;SDS011;22383;51.114;13.666;2023-09-12T03:37:22;25.77;;;18.88;;
36353;SDS011;22383;51.114;13.666;2023-09-12T03:39:49;26.50;;;18.63;;
36353;SDS011;22383;51.114;13.666;2023-09-12T03:42:16;22.85;;;17.40;;
36353;SDS011;22383;51.114;13.666;2023-09-12T03:44:44;26.13;;;17.80;;
36353;SDS011;22383;51.114;13.666;2023-09-12T03:47:11;20.95;;;16.85;;
36353;SDS011;22383;51.114;13.666;2023-09-12T03:49:38;22.30;;;17.45;;
36353;SDS011;22383;51.114;13.666;2023-09-12T03:52:05;22.98;;;17.52;;
36353;SDS011;22383;51.114;13.666;2023-09-12T03:54:33;24.00;;;18.50;;
36353;SDS011;22383;51.114;13.666;2023-09-12T03:57:00;25.20;;;19.48;;
36353;SDS011;22383;51.114;13.666;2023-09-12T03:59:27;25.63;;;19.42;;
36353;SDS011;22383;51.114;13.666;2023-09-12T04:01:55;26.00;;;20.23;;
36353;SDS011;22383;51.114;13.666;2023-09-12T04:04:22;26.52;;;20.05;;
36353;SDS011;22383;51.114;13.666;2023-09-12T04:06:49;29.38;;;20.75;;
36353;SDS011;22383;51.114;13.666;2023-09-12T04:09:17;27.85;;;21.42;;
36353;SDS011;22383;51.114;13.666;2023-09-12T04:11:44;26.30;;;19.88;;
36353;SDS011;22383;51.114;13.666;2023-09-12T04:14:14;25.75;;;20.48;;
36353;SDS011;22383;51.114;13.666;2023-09-12T04:16:41;27.08;;;20.42;;
36353;SDS011;22383;51.114;13.666;2023-09-12T04:19:09;26.77;;;19.77;;
36353;SDS011;22383;51.114;13.666;2023-09-12T04:21:37;26.98;;;20.20;;
36353;SDS011;22383;51.114;13.666;2023-09-12T04:24:05;24.45;;;19.33;;
36353;SDS011;22383;51.114;13.666;2023-09-12T04:26:33;23.73;;;18.52;;
36353;SDS011;22383;51.114;13.666;2023-09-12T04:29:02;23.88;;;17.90;;
36353;SDS011;22383;51.114;13.666;2023-09-12T04:31:29;24.95;;;19.25;;
36353;SDS011;22383;51.114;13.666;2023-09-12T04:33:56;26.00;;;17.85;;
36353;SDS011;22383;51.114;13.666;2023-09-12T04:36:24;21.92;;;17.10;;
36353;SDS011;22383;51.114;13.666;2023-09-12T04:38:51;22.17;;;15.90;;
36353;SDS011;22383;51.114;13.666;2023-09-12T04:41:18;24.58;;;16.35;;
36353;SDS011;22383;51.114;13.666;2023-09-12T04:43:45;23.80;;;16.75;;
36353;SDS011;22383;51.114;13.666;2023-09-12T04:46:13;20.70;;;16.33;;
36353;SDS011;22383;51.114;13.666;2023-09-12T04:48:40;26.70;;;18.85;;
36353;SDS011;22383;51.114;13.666;2023-09-12T04:51:08;28.17;;;19.55;;
36353;SDS011;22383;51.114;13.666;2023-09-12T04:53:35;24.88;;;18.20;;
36353;SDS011;22383;51.114;13.666;2023-09-12T04:56:05;26.50;;;19.15;;
36353;SDS011;22383;51.114;13.666;2023-09-12T04:58:33;24.58;;;17.27;;
36353;SDS011;22383;51.114;13.666;2023-09-12T05:01:01;24.50;;;17.25;;
36353;SDS011;22383;51.114;13.666;2023-09-12T05:03:29;21.40;;;16.15;;
36353;SDS011;22383;51.114;13.666;2023-09-12T05:05:56;25.00;;;17.08;;
36353;SDS011;22383;51.114;13.666;2023-09-12T05:08:25;25.13;;;18.08;;
36353;SDS011;22383;51.114;13.666;2023-09-12T05:10:52;25.40;;;18.33;;
36353;SDS011;22383;51.114;13.666;2023-09-12T05:15:47;23.23;;;17.45;;
36353;SDS011;22383;51.114;13.666;2023-09-12T05:18:15;25.67;;;17.73;;
36353;SDS011;22383;51.114;13.666;2023-09-12T05:20:42;23.58;;;15.90;;
36353;SDS011;22383;51.114;13.666;2023-09-12T05:23:09;23.63;;;17.17;;
36353;SDS011;22383;51.114;13.666;2023-09-12T05:25:36;22.48;;;17.35;;
36353;SDS011;22383;51.114;13.666;2023-09-12T05:28:04;19.65;;;15.35;;
36353;SDS011;22383;51.114;13.666;2023-09-12T05:30:32;19.83;;;15.05;;
36353;SDS011;22383;51.114;13.666;2023-09-12T05:32:59;20.88;;;16.55;;
36353;SDS011;22383;51.114;13.666;2023-09-12T05:35:27;23.17;;;15.73;;
36353;SDS011;22383;51.114;13.666;2023-09-12T05:37:54;23.58;;;15.65;;
36353;SDS011;22383;51.114;13.666;2023-09-12T05:40:21;24.73;;;17.02;;
36353;SDS011;22383;51.114;13.666;2023-09-12T05:45:16;30.30;;;17.38;;
36353;SDS011;22383;51.114;13.666;2023-09-12T05:47:44;26.17;;;19.08;;
36353;SDS011;22383;51.114;13.666;2023-09-12T05:50:11;24.98;;;19.90;;
36353;SDS011;22383;51.114;13.666;2023-09-12T05:52:38;26.50;;;19.83;;
36353;SDS011;22383;51.114;13.666;2023-09-12T05:55:06;26.90;;;18.35;;
36353;SDS011;22383;51.114;13.666;2023-09-12T06:02:38;28.05;;;19.23;;
36353;SDS011;22383;51.114;13.666;2023-09-12T06:05:06;25.58;;;18.00;;
36353;SDS011;22383;51.114;13.666;2023-09-12T06:07:34;24.17;;;18.58;;
36353;SDS011;22383;51.114;13.666;2023-09-12T06:10:02;26.63;;;18.48;;
36353;SDS011;22383;51.114;13.666;2023-09-12T06:12:30;24.48;;;18.48;;
36353;SDS011;22383;51.114;13.666;2023-09-12T06:15:00;23.08;;;17.95;;
36353;SDS011;22383;51.114;13.666;2023-09-12T06:17:28;23.95;;;18.65;;
36353;SDS011;22383;51.114;13.666;2023-09-12T06:19:55;26.17;;;18.38;;
36353;SDS011;22383;51.114;13.666;2023-09-12T06:22:23;23.08;;;17.92;;
36353;SDS011;22383;51.114;13.666;2023-09-12T06:24:50;26.15;;;19.23;;
36353;SDS011;22383;51.114;13.666;2023-09-12T06:29:48;23.45;;;17.70;;
36353;SDS011;22383;51.114;13.666;2023-09-12T06:32:19;22.48;;;15.88;;
36353;SDS011;22383;51.114;13.666;2023-09-12T06:34:46;25.70;;;17.48;;
36353;SDS011;22383;51.114;13.666;2023-09-12T06:37:14;26.20;;;16.70;;
36353;SDS011;22383;51.114;13.666;2023-09-12T06:39:42;20.80;;;15.80;;
36353;SDS011;22383;51.114;13.666;2023-09-12T06:42:09;22.40;;;15.55;;
36353;SDS011;22383;51.114;13.666;2023-09-12T06:44:36;22.80;;;15.65;;
36353;SDS011;22383;51.114;13.666;2023-09-12T06:47:04;19.88;;;14.57;;
36353;SDS011;22383;51.114;13.666;2023-09-12T06:49:31;23.25;;;14.63;;
36353;SDS011;22383;51.114;13.666;2023-09-12T06:52:01;19.58;;;14.02;;
36353;SDS011;22383;51.114;13.666;2023-09-12T06:54:29;23.30;;;15.70;;
36353;SDS011;22383;51.114;13.666;2023-09-12T06:56:57;24.20;;;15.55;;
36353;SDS011;22383;51.114;13.666;2023-09-12T06:59:24;20.63;;;14.60;;
36353;SDS011;22383;51.114;13.666;2023-09-12T07:01:51;23.05;;;15.00;;
36353;SDS011;22383;51.114;13.666;2023-09-12T07:04:18;20.50;;;15.68;;
36353;SDS011;22383;51.114;13.666;2023-09-12T07:06:45;19.02;;;14.13;;
36353;SDS011;22383;51.114;13.666;2023-09-12T07:09:13;18.77;;;13.35;;
36353;SDS011;22383;51.114;13.666;2023-09-12T07:11:41;24.38;;;14.30;;
36353;SDS011;22383;51.114;13.666;2023-09-12T07:14:09;21.25;;;14.07;;
36353;SDS011;22383;51.114;13.666;2023-09-12T07:16:37;21.23;;;13.75;;
36353;SDS011;22383;51.114;13.666;2023-09-12T07:19:04;23.83;;;13.90;;
36353;SDS011;22383;51.114;13.666;2023-09-12T07:21:31;26.60;;;14.88;;
36353;SDS011;22383;51.114;13.666;2023-09-12T07:23:59;21.58;;;14.10;;
36353;SDS011;22383;51.114;13.666;2023-09-12T07:26:26;16.98;;;11.73;;
36353;SDS011;22383;51.114;13.666;2023-09-12T07:28:54;17.15;;;13.00;;
36353;SDS011;22383;51.114;13.666;2023-09-12T07:31:21;19.40;;;12.70;;
36353;SDS011;22383;51.114;13.666;2023-09-12T07:33:49;21.08;;;12.73;;
36353;SDS011;22383;51.114;13.666;2023-09-12T07:36:16;17.13;;;12.43;;
36353;SDS011;22383;51.114;13.666;2023-09-12T07:38:43;18.30;;;12.75;;
36353;SDS011;22383;51.114;13.666;2023-09-12T07:41:12;19.80;;;13.77;;
36353;SDS011;22383;51.114;13.666;2023-09-12T07:43:39;17.20;;;12.65;;
36353;SDS011;22383;51.114;13.666;2023-09-12T07:46:08;17.00;;;12.90;;
36353;SDS011;22383;51.114;13.666;2023-09-12T07:48:35;19.08;;;13.73;;
36353;SDS011;22383;51.114;13.666;2023-09-12T07:51:10;20.20;;;11.68;;
36353;SDS011;22383;51.114;13.666;2023-09-12T07:53:38;17.15;;;11.75;;
36353;SDS011;22383;51.114;13.666;2023-09-12T07:56:08;15.70;;;11.48;;
36353;SDS011;22383;51.114;13.666;2023-09-12T07:58:35;15.60;;;11.85;;
36353;SDS011;22383;51.114;13.666;2023-09-12T08:01:09;19.00;;;11.77;;
36353;SDS011;22383;51.114;13.666;2023-09-12T08:03:37;18.77;;;12.68;;
36353;SDS011;22383;51.114;13.666;2023-09-12T08:06:07;18.67;;;11.13;;
36353;SDS011;22383;51.114;13.666;2023-09-12T08:08:34;16.33;;;10.70;;
36353;SDS011;22383;51.114;13.666;2023-09-12T08:13:29;13.93;;;9.75;;
36353;SDS011;22383;51.114;13.666;2023-09-12T08:15:57;12.55;;;9.18;;
36353;SDS011;22383;51.114;13.666;2023-09-12T08:18:26;15.30;;;10.18;;
36353;SDS011;22383;51.114;13.666;2023-09-12T08:20:57;14.73;;;9.52;;
36353;SDS011;22383;51.114;13.666;2023-09-12T08:25:51;16.73;;;8.82;;
36353;SDS011;22383;51.114;13.666;2023-09-12T08:28:18;14.82;;;9.18;;
36353;SDS011;22383;51.114;13.666;2023-09-12T08:30:45;16.27;;;9.57;;
36353;SDS011;22383;51.114;13.666;2023-09-12T08:33:15;15.82;;;8.68;;
36353;SDS011;22383;51.114;13.666;2023-09-12T08:35:43;15.57;;;8.65;;
36353;SDS011;22383;51.114;13.666;2023-09-12T08:38:10;12.82;;;8.05;;
36353;SDS011;22383;51.114;13.666;2023-09-12T08:40:38;15.77;;;8.10;;
36353;SDS011;22383;51.114;13.666;2023-09-12T08:43:06;13.63;;;7.85;;
36353;SDS011;22383;51.114;13.666;2023-09-12T08:45:33;14.50;;;8.43;;
36353;SDS011;22383;51.114;13.666;2023-09-12T08:48:03;11.30;;;7.88;;
36353;SDS011;22383;51.114;13.666;2023-09-12T08:50:32;15.82;;;7.78;;
36353;SDS011;22383;51.114;13.666;2023-09-12T08:53:01;11.30;;;7.53;;
36353;SDS011;22383;51.114;13.666;2023-09-12T08:55:33;12.02;;;8.27;;
36353;SDS011;22383;51.114;13.666;2023-09-12T08:58:03;14.85;;;9.25;;
36353;SDS011;22383;51.114;13.666;2023-09-12T09:00:31;14.73;;;8.90;;
36353;SDS011;22383;51.114;13.666;2023-09-12T09:03:00;17.40;;;9.52;;
36353;SDS011;22383;51.114;13.666;2023-09-12T09:05:28;20.70;;;10.27;;
36353;SDS011;22383;51.114;13.666;2023-09-12T09:07:56;13.23;;;9.20;;
36353;SDS011;22383;51.114;13.666;2023-09-12T09:10:25;16.02;;;9.75;;
36353;SDS011;22383;51.114;13.666;2023-09-12T09:13:14;14.27;;;9.15;;
36353;SDS011;22383;51.114;13.666;2023-09-12T09:15:41;15.68;;;9.52;;
36353;SDS011;22383;51.114;13.666;2023-09-12T09:18:09;15.52;;;10.27;;
36353;SDS011;22383;51.114;13.666;2023-09-12T09:20:39;14.05;;;9.98;;
36353;SDS011;22383;51.114;13.666;2023-09-12T09:23:09;13.75;;;9.82;;
36353;SDS011;22383;51.114;13.666;2023-09-12T09:25:41;15.63;;;10.07;;
36353;SDS011;22383;51.114;13.666;2023-09-12T09:28:19;18.05;;;9.45;;
36353;SDS011;22383;51.114;13.666;2023-09-12T09:30:48;16.52;;;10.25;;
36353;SDS011;22383;51.114;13.666;2023-09-12T09:33:22;20.13;;;10.30;;
36353;SDS011;22383;51.114;13.666;2023-09-12T09:35:50;13.23;;;9.15;;
36353;SDS011;22383;51.114;13.666;2023-09-12T09:38:28;14.05;;;10.05;;
36353;SDS011;22383;51.114;13.666;2023-09-12T09:40:56;14.02;;;9.32;;
36353;SDS011;22383;51.114;13.666;2023-09-12T09:43:23;12.05;;;8.40;;
36353;SDS011;22383;51.114;13.666;2023-09-12T09:45:51;15.48;;;8.60;;
36353;SDS011;22383;51.114;13.666;2023-09-12T09:48:20;15.13;;;8.55;;
36353;SDS011;22383;51.114;13.666;2023-09-12T09:50:48;12.68;;;8.75;;
36353;SDS011;22383;51.114;13.666;2023-09-12T09:55:43;14.82;;;8.85;;
36353;SDS011;22383;51.114;13.666;2023-09-12T09:58:14;15.68;;;8.07;;
36353;SDS011;22383;51.114;13.666;2023-09-12T10:00:44;11.55;;;7.10;;
36353;SDS011;22383;51.114;13.666;2023-09-12T10:03:12;13.60;;;8.13;;
36353;SDS011;22383;51.114;13.666;2023-09-12T10:05:41;16.73;;;8.48;;
36353;SDS011;22383;51.114;13.666;2023-09-12T10:08:10;13.23;;;8.52;;
36353;SDS011;22383;51.114;13.666;2023-09-12T10:10:44;11.40;;;7.75;;
36353;SDS011;22383;51.114;13.666;2023-09-12T10:13:11;13.20;;;7.70;;
36353;SDS011;22383;51.114;13.666;2023-09-12T10:15:40;13.57;;;7.47;;
36353;SDS011;22383;51.114;13.666;2023-09-12T10:18:12;13.57;;;7.10;;
36353;SDS011;22383;51.114;13.666;2023-09-12T10:20:58;11.18;;;6.78;;
36353;SDS011;22383;51.114;13.666;2023-09-12T10:23:41;10.15;;;7.35;;
36353;SDS011;22383;51.114;13.666;2023-09-12T10:26:13;11.00;;;7.20;;
36353;SDS011;22383;51.114;13.666;2023-09-12T10:28:41;11.63;;;7.07;;
36353;SDS011;22383;51.114;13.666;2023-09-12T10:31:11;14.85;;;7.57;;
36353;SDS011;22383;51.114;13.666;2023-09-12T10:33:39;12.82;;;7.20;;
36353;SDS011;22383;51.114;13.666;2023-09-12T10:36:08;10.13;;;6.53;;
36353;SDS011;22383;51.114;13.666;2023-09-12T10:38:39;13.13;;;6.85;;
36353;SDS011;22383;51.114;13.666;2023-09-12T10:41:09;14.90;;;6.80;;
36353;SDS011;22383;51.114;13.666;2023-09-12T10:43:38;14.30;;;7.43;;
36353;SDS011;22383;51.114;13.666;2023-09-12T10:46:08;10.45;;;6.30;;
36353;SDS011;22383;51.114;13.666;2023-09-12T10:48:35;19.85;;;7.65;;
36353;SDS011;22383;51.114;13.666;2023-09-12T10:51:03;10.90;;;5.57;;
36353;SDS011;22383;51.114;13.666;2023-09-12T10:53:32;12.48;;;5.30;;
36353;SDS011;22383;51.114;13.666;2023-09-12T10:56:16;18.50;;;5.65;;
36353;SDS011;22383;51.114;13.666;2023-09-12T11:01:40;13.05;;;5.43;;
36353;SDS011;22383;51.114;13.666;2023-09-12T11:06:47;16.83;;;5.80;;
36353;SDS011;22383;51.114;13.666;2023-09-12T11:09:18;12.93;;;5.10;;
36353;SDS011;22383;51.114;13.666;2023-09-12T11:11:49;11.77;;;5.45;;
36353;SDS011;22383;51.114;13.666;2023-09-12T11:14:22;12.38;;;5.35;;
36353;SDS011;22383;51.114;13.666;2023-09-12T11:19:44;14.15;;;5.25;;
36353;SDS011;22383;51.114;13.666;2023-09-12T11:25:01;14.95;;;6.13;;
36353;SDS011;22383;51.114;13.666;2023-09-12T11:27:43;13.88;;;4.93;;
36353;SDS011;22383;51.114;13.666;2023-09-12T11:30:13;14.02;;;5.07;;
36353;SDS011;22383;51.114;13.666;2023-09-12T11:32:41;13.23;;;4.97;;
36353;SDS011;22383;51.114;13.666;2023-09-12T11:35:13;16.48;;;5.15;;
36353;SDS011;22383;51.114;13.666;2023-09-12T11:37:50;10.32;;;5.22;;
36353;SDS011;22383;51.114;13.666;2023-09-12T11:42:50;18.33;;;6.13;;
36353;SDS011;22383;51.114;13.666;2023-09-12T11:45:18;12.90;;;5.15;;
36353;SDS011;22383;51.114;13.666;2023-09-12T11:47:46;12.70;;;5.65;;
36353;SDS011;22383;51.114;13.666;2023-09-12T11:53:19;12.63;;;5.25;;
36353;SDS011;22383;51.114;13.666;2023-09-12T11:55:53;9.15;;;4.55;;
36353;SDS011;22383;51.114;13.666;2023-09-12T11:58:23;14.73;;;5.70;;
36353;SDS011;22383;51.114;13.666;2023-09-12T12:00:52;12.48;;;4.85;;
36353;SDS011;22383;51.114;13.666;2023-09-12T12:03:25;16.02;;;5.20;;
36353;SDS011;22383;51.114;13.666;2023-09-12T12:05:54;13.35;;;5.15;;
36353;SDS011;22383;51.114;13.666;2023-09-12T12:08:22;11.50;;;5.03;;
36353;SDS011;22383;51.114;13.666;2023-09-12T12:10:52;13.25;;;4.68;;
36353;SDS011;22383;51.114;13.666;2023-09-12T12:13:21;12.05;;;4.85;;
36353;SDS011;22383;51.114;13.666;2023-09-12T12:15:50;11.13;;;5.03;;
36353;SDS011;22383;51.114;13.666;2023-09-12T12:18:18;12.18;;;5.55;;
36353;SDS011;22383;51.114;13.666;2023-09-12T12:20:45;13.20;;;5.63;;
36353;SDS011;22383;51.114;13.666;2023-09-12T12:23:13;15.80;;;5.15;;
36353;SDS011;22383;51.114;13.666;2023-09-12T12:25:40;14.88;;;5.57;;
36353;SDS011;22383;51.114;13.666;2023-09-12T12:28:07;20.10;;;6.03;;
36353;SDS011;22383;51.114;13.666;2023-09-12T12:30:35;16.70;;;6.28;;
36353;SDS011;22383;51.114;13.666;2023-09-12T12:33:07;11.02;;;5.13;;
36353;SDS011;22383;51.114;13.666;2023-09-12T12:36:02;15.70;;;5.47;;
36353;SDS011;22383;51.114;13.666;2023-09-12T12:38:32;11.48;;;4.60;;
36353;SDS011;22383;51.114;13.666;2023-09-12T12:41:02;17.23;;;5.32;;
36353;SDS011;22383;51.114;13.666;2023-09-12T12:45:57;11.93;;;4.97;;
36353;SDS011;22383;51.114;13.666;2023-09-12T12:48:32;13.30;;;5.13;;
36353;SDS011;22383;51.114;13.666;2023-09-12T12:51:14;10.43;;;5.38;;
36353;SDS011;22383;51.114;13.666;2023-09-12T12:53:47;10.52;;;5.13;;
36353;SDS011;22383;51.114;13.666;2023-09-12T12:56:22;18.05;;;5.35;;
36353;SDS011;22383;51.114;13.666;2023-09-12T12:58:56;15.38;;;5.72;;
36353;SDS011;22383;51.114;13.666;2023-09-12T13:01:25;12.38;;;5.40;;
36353;SDS011;22383;51.114;13.666;2023-09-12T13:03:52;11.40;;;4.78;;
36353;SDS011;22383;51.114;13.666;2023-09-12T13:06:21;14.15;;;5.25;;
36353;SDS011;22383;51.114;13.666;2023-09-12T13:08:49;17.17;;;5.35;;
36353;SDS011;22383;51.114;13.666;2023-09-12T13:11:17;17.38;;;5.32;;
36353;SDS011;22383;51.114;13.666;2023-09-12T13:13:45;15.40;;;5.40;;
36353;SDS011;22383;51.114;13.666;2023-09-12T13:16:15;16.95;;;5.65;;
36353;SDS011;22383;51.114;13.666;2023-09-12T13:18:43;13.77;;;5.10;;
36353;SDS011;22383;51.114;13.666;2023-09-12T13:21:10;14.63;;;4.60;;
36353;SDS011;22383;51.114;13.666;2023-09-12T13:23:38;12.55;;;5.50;;
36353;SDS011;22383;51.114;13.666;2023-09-12T13:26:07;14.93;;;4.63;;
36353;SDS011;22383;51.114;13.666;2023-09-12T13:28:35;15.85;;;5.00;;
36353;SDS011;22383;51.114;13.666;2023-09-12T13:31:03;15.57;;;5.18;;
36353;SDS011;22383;51.114;13.666;2023-09-12T13:35:58;14.82;;;5.18;;
36353;SDS011;22383;51.114;13.666;2023-09-12T13:38:26;12.82;;;4.78;;
36353;SDS011;22383;51.114;13.666;2023-09-12T13:40:53;13.75;;;5.38;;
36353;SDS011;22383;51.114;13.666;2023-09-12T13:43:20;12.90;;;4.80;;
36353;SDS011;22383;51.114;13.666;2023-09-12T13:45:47;13.35;;;5.03;;
36353;SDS011;22383;51.114;13.666;2023-09-12T13:48:16;13.27;;;4.40;;
36353;SDS011;22383;51.114;13.666;2023-09-12T13:50:43;11.98;;;4.88;;
36353;SDS011;22383;51.114;13.666;2023-09-12T13:53:10;12.07;;;4.50;;
36353;SDS011;22383;51.114;13.666;2023-09-12T13:55:38;11.07;;;4.28;;
36353;SDS011;22383;51.114;13.666;2023-09-12T13:58:15;10.05;;;4.47;;
36353;SDS011;22383;51.114;13.666;2023-09-12T14:00:42;13.05;;;4.50;;
36353;SDS011;22383;51.114;13.666;2023-09-12T14:03:09;16.15;;;4.63;;
36353;SDS011;22383;51.114;13.666;2023-09-12T14:05:37;9.63;;;4.65;;
36353;SDS011;22383;51.114;13.666;2023-09-12T14:08:06;14.52;;;4.40;;
36353;SDS011;22383;51.114;13.666;2023-09-12T14:10:35;9.98;;;3.80;;
36353;SDS011;22383;51.114;13.666;2023-09-12T14:13:04;11.50;;;4.10;;
36353;SDS011;22383;51.114;13.666;2023-09-12T14:15:47;11.05;;;4.40;;
36353;SDS011;22383;51.114;13.666;2023-09-12T14:18:17;11.35;;;4.47;;
36353;SDS011;22383;51.114;13.666;2023-09-12T14:20:46;12.43;;;4.70;;
36353;SDS011;22383;51.114;13.666;2023-09-12T14:23:14;12.20;;;4.72;;
36353;SDS011;22383;51.114;13.666;2023-09-12T14:25:43;12.45;;;4.65;;
36353;SDS011;22383;51.114;13.666;2023-09-12T14:28:12;13.00;;;5.13;;
36353;SDS011;22383;51.114;13.666;2023-09-12T14:30:41;14.60;;;5.03;;
36353;SDS011;22383;51.114;13.666;2023-09-12T14:33:12;12.00;;;5.50;;
36353;SDS011;22383;51.114;13.666;2023-09-12T14:35:43;9.63;;;4.18;;
36353;SDS011;22383;51.114;13.666;2023-09-12T14:38:11;13.27;;;5.65;;
36353;SDS011;22383;51.114;13.666;2023-09-12T14:40:39;16.83;;;5.00;;
36353;SDS011;22383;51.114;13.666;2023-09-12T14:43:11;11.02;;;4.38;;
36353;SDS011;22383;51.114;13.666;2023-09-12T14:45:38;13.52;;;4.85;;
36353;SDS011;22383;51.114;13.666;2023-09-12T14:50:34;12.93;;;4.80;;
36353;SDS011;22383;51.114;13.666;2023-09-12T14:53:10;13.93;;;6.05;;
36353;SDS011;22383;51.114;13.666;2023-09-12T14:55:39;10.05;;;4.82;;
36353;SDS011;22383;51.114;13.666;2023-09-12T14:58:06;13.43;;;4.20;;
36353;SDS011;22383;51.114;13.666;2023-09-12T15:00:34;11.52;;;4.95;;
36353;SDS011;22383;51.114;13.666;2023-09-12T15:03:02;12.65;;;5.38;;
36353;SDS011;22383;51.114;13.666;2023-09-12T15:05:30;10.38;;;5.07;;
36353;SDS011;22383;51.114;13.666;2023-09-12T15:07:57;15.80;;;5.30;;
36353;SDS011;22383;51.114;13.666;2023-09-12T15:10:24;14.20;;;6.18;;
36353;SDS011;22383;51.114;13.666;2023-09-12T15:12:52;15.60;;;4.95;;
36353;SDS011;22383;51.114;13.666;2023-09-12T15:15:20;13.50;;;5.10;;
36353;SDS011;22383;51.114;13.666;2023-09-12T15:17:47;15.35;;;5.20;;